createdAt,value
2022-09-23T00:02:17.559Z,101391.78
2022-09-23T00:04:47.195Z,101393.56
2022-09-23T00:07:17.074Z,101381.50
2022-09-23T00:09:47.014Z,101391.03
2022-09-23T00:12:19.171Z,101372.19
2022-09-23T00:14:48.764Z,101385.22
2022-09-23T00:17:18.364Z,101380.09
2022-09-23T00:19:48.846Z,101368.91
2022-09-23T00:22:19.045Z,101355.03
2022-09-23T00:24:48.612Z,101362.69
2022-09-23T00:27:21.127Z,101364.31
2022-09-23T00:29:50.790Z,101367.78
2022-09-23T00:32:20.414Z,101368.63
2022-09-23T00:34:51.544Z,101370.47
2022-09-23T00:37:21.911Z,101370.63
2022-09-23T00:39:51.624Z,101362.78
2022-09-23T00:42:25.317Z,101345.63
2022-09-23T00:44:56.431Z,101357.69
2022-09-23T00:47:31.978Z,101359.41
2022-09-23T00:50:10.258Z,101356.94
2022-09-23T00:52:40.456Z,101355.06
2022-09-23T00:55:14.038Z,101359.41
2022-09-23T00:57:48.661Z,101343.75
2022-09-23T01:00:18.525Z,101352.28
2022-09-23T01:02:48.636Z,101353.16
2022-09-23T01:05:19.056Z,101330.75
2022-09-23T01:07:49.084Z,101349.59
2022-09-23T01:10:21.542Z,101338.38
2022-09-23T01:13:08.569Z,101348.63
2022-09-23T01:15:47.469Z,101341.75
2022-09-23T01:18:28.537Z,101333.16
2022-09-23T01:21:15.153Z,101289.03
2022-09-23T01:24:17.029Z,101338.22
2022-09-23T01:26:57.814Z,101331.41
2022-09-23T01:30:08.747Z,101307.25
2022-09-23T01:33:00.785Z,101317.78
2022-09-23T01:35:40.844Z,101323.78
2022-09-23T01:38:19.601Z,101321.22
2022-09-23T01:40:55.649Z,101322.00
2022-09-23T01:43:30.394Z,101276.00
2022-09-23T01:46:03.154Z,101317.66
2022-09-23T01:48:40.308Z,101313.38
2022-09-23T01:51:16.324Z,101309.81
2022-09-23T01:53:50.370Z,101314.13
2022-09-23T01:56:25.187Z,101309.00
2022-09-23T01:59:02.363Z,101308.16
2022-09-23T02:01:39.344Z,101305.47
2022-09-23T02:04:17.517Z,101297.59
2022-09-23T02:06:53.285Z,101299.47
2022-09-23T02:09:28.461Z,101302.81
2022-09-23T02:12:05.798Z,101298.47
2022-09-23T02:14:41.277Z,101289.00
2022-09-23T02:17:13.552Z,101295.88
2022-09-23T02:19:49.396Z,101300.16
2022-09-23T02:22:31.069Z,101298.34
2022-09-23T02:25:00.800Z,101295.72
2022-09-23T02:27:37.861Z,101281.25
2022-09-23T02:30:12.796Z,101288.91
2022-09-23T02:32:52.607Z,101275.84
2022-09-23T02:35:33.286Z,101271.56
2022-09-23T02:38:17.822Z,101282.75
2022-09-23T02:40:55.645Z,101274.06
2022-09-23T02:43:32.212Z,101286.94
2022-09-23T02:46:02.311Z,101286.06
2022-09-23T02:48:35.902Z,101282.75
2022-09-23T02:51:08.592Z,101276.78
2022-09-23T02:53:38.354Z,101275.84
2022-09-23T02:56:19.110Z,101278.47
2022-09-23T02:58:49.891Z,101271.44
2022-09-23T03:01:33.176Z,101258.63
2022-09-23T03:04:13.196Z,101274.91
2022-09-23T03:06:54.968Z,101251.31
2022-09-23T03:09:29.205Z,101276.47
2022-09-23T03:12:12.710Z,101277.47
2022-09-23T03:14:51.946Z,101272.28
2022-09-23T03:17:29.523Z,101278.22
2022-09-23T03:20:04.557Z,101274.00
2022-09-23T03:22:41.648Z,101243.84
2022-09-23T03:25:16.287Z,101272.38
2022-09-23T03:27:47.763Z,101268.88
2022-09-23T03:30:17.919Z,101268.03
2022-09-23T03:32:51.216Z,101272.38
2022-09-23T03:35:21.358Z,101250.78
2022-09-23T03:37:59.141Z,101262.97
2022-09-23T03:40:35.354Z,101256.97
2022-09-23T03:43:06.164Z,101255.94
2022-09-23T03:45:37.681Z,101231.91
2022-09-23T03:48:07.913Z,101245.75
2022-09-23T03:50:39.287Z,101252.50
2022-09-23T03:53:12.781Z,101244.94
2022-09-23T03:55:42.555Z,101243.91
2022-09-23T03:58:12.180Z,101244.59
2022-09-23T04:00:42.401Z,101243.66
2022-09-23T04:03:12.152Z,101243.66
2022-09-23T04:05:41.857Z,101232.53
2022-09-23T04:08:14.046Z,101224.81
2022-09-23T04:10:44.125Z,101230.72
2022-09-23T04:13:13.754Z,101229.00
2022-09-23T04:15:43.700Z,101219.47
2022-09-23T04:18:13.336Z,101225.44
2022-09-23T04:20:42.970Z,101228.88
2022-09-23T04:23:15.176Z,101222.09
2022-09-23T04:25:47.912Z,101216.03
2022-09-23T04:28:17.761Z,101166.50
2022-09-23T04:30:48.869Z,101214.44
2022-09-23T04:33:19.008Z,101186.88
2022-09-23T04:35:52.877Z,101215.53
2022-09-23T04:38:25.205Z,101167.16
2022-09-23T04:40:54.843Z,101212.13
2022-09-23T04:43:25.642Z,101213.06
2022-09-23T04:46:02.599Z,101214.06
2022-09-23T04:48:32.607Z,101217.25
2022-09-23T04:51:05.843Z,101208.00
2022-09-23T04:53:39.087Z,101217.34
2022-09-23T04:56:12.124Z,101198.69
2022-09-23T04:58:43.407Z,101195.31
2022-09-23T05:01:14.404Z,101198.81
2022-09-23T05:03:45.094Z,101187.66
2022-09-23T05:06:16.966Z,101186.03
2022-09-23T05:08:53.858Z,101201.72
2022-09-23T05:11:24.194Z,101204.22
2022-09-23T05:13:55.553Z,101202.47
2022-09-23T05:16:28.382Z,101190.44
2022-09-23T05:18:58.157Z,101202.47
2022-09-23T05:21:30.292Z,101199.09
2022-09-23T05:24:02.673Z,101198.13
2022-09-23T05:26:35.271Z,101200.66
2022-09-23T05:29:04.986Z,101198.75
2022-09-23T05:31:36.750Z,101200.66
2022-09-23T05:34:08.540Z,101201.47
2022-09-23T05:36:39.426Z,101197.25
2022-09-23T05:39:12.782Z,101176.56
2022-09-23T05:41:43.469Z,101192.34
2022-09-23T05:44:13.231Z,101188.97
2022-09-23T05:46:44.017Z,101182.53
2022-09-23T05:49:13.786Z,101187.00
2022-09-23T05:51:43.537Z,101186.44
2022-09-23T05:54:16.829Z,101180.97
2022-09-23T05:56:46.517Z,101194.22
2022-09-23T05:59:16.217Z,101189.56
2022-09-23T06:01:46.967Z,101189.50
2022-09-23T06:04:17.145Z,101185.13
2022-09-23T06:06:47.830Z,101185.06
2022-09-23T06:09:20.096Z,101187.66
2022-09-23T06:11:50.918Z,101176.50
2022-09-23T06:14:20.841Z,101177.28
2022-09-23T06:16:50.548Z,101180.66
2022-09-23T06:19:20.248Z,101178.94
2022-09-23T06:21:53.452Z,101181.53
2022-09-23T06:24:30.768Z,101176.50
2022-09-23T06:27:01.095Z,101180.56
2022-09-23T06:29:32.147Z,101181.47
2022-09-23T06:32:02.354Z,101130.34
2022-09-23T06:34:40.966Z,101190.81
2022-09-23T06:37:20.105Z,101182.47
2022-09-23T06:39:54.898Z,101177.44
2022-09-23T06:42:24.620Z,101171.34
2022-09-23T06:44:54.325Z,101179.34
2022-09-23T06:47:26.086Z,101166.56
2022-09-23T06:49:55.842Z,101144.72
2022-09-23T06:52:26.713Z,101187.25
2022-09-23T06:55:01.033Z,101187.44
2022-09-23T06:57:32.892Z,101191.13
2022-09-23T07:00:03.322Z,101167.81
2022-09-23T07:02:35.692Z,101173.25
2022-09-23T07:05:05.648Z,101193.47
2022-09-23T07:07:36.801Z,101172.97
2022-09-23T07:10:10.121Z,101175.19
2022-09-23T07:12:40.312Z,101191.81
2022-09-23T07:15:16.860Z,101188.78
2022-09-23T07:17:50.566Z,101180.31
2022-09-23T07:20:20.690Z,101183.06
2022-09-23T07:22:52.541Z,101195.19
2022-09-23T07:25:25.180Z,101190.47
2022-09-23T07:27:58.869Z,101192.41
2022-09-23T07:30:28.555Z,101186.31
2022-09-23T07:32:58.355Z,101171.72
2022-09-23T07:35:28.199Z,101195.03
2022-09-23T07:37:58.918Z,101177.28
2022-09-23T07:40:31.279Z,101184.31
2022-09-23T07:43:02.137Z,101186.78
2022-09-23T07:45:33.289Z,101168.22
2022-09-23T07:48:03.633Z,101176.03
2022-09-23T07:50:33.893Z,101152.69
2022-09-23T07:53:04.230Z,101179.53
2022-09-23T07:55:37.804Z,101178.00
2022-09-23T07:58:08.470Z,101185.13
2022-09-23T08:00:39.229Z,101169.72
2022-09-23T08:03:10.265Z,101175.00
2022-09-23T08:05:41.616Z,101151.81
2022-09-23T08:08:11.374Z,101162.44
2022-09-23T08:10:43.685Z,101172.81
2022-09-23T08:13:16.481Z,101176.44
2022-09-23T08:15:55.256Z,101185.22
2022-09-23T08:18:25.304Z,101169.66
2022-09-23T08:20:55.472Z,101179.38
2022-09-23T08:23:25.161Z,101181.16
2022-09-23T08:26:02.721Z,101178.44
2022-09-23T08:28:33.859Z,101167.47
2022-09-23T08:31:04.808Z,101173.44
2022-09-23T08:33:34.564Z,101172.72
2022-09-23T08:36:08.313Z,101170.97
2022-09-23T08:38:40.037Z,101153.81
2022-09-23T08:41:22.745Z,101173.78
2022-09-23T08:43:58.561Z,101165.25
2022-09-23T08:46:35.427Z,101175.06
2022-09-23T08:49:08.832Z,101171.81
2022-09-23T08:51:44.348Z,101143.44
2022-09-23T08:54:20.903Z,101167.72
2022-09-23T08:57:00.437Z,101151.47
2022-09-23T08:59:38.518Z,101163.63
2022-09-23T09:02:14.121Z,101162.00
2022-09-23T09:04:47.368Z,101163.69
2022-09-23T09:07:36.254Z,101162.56
2022-09-23T09:10:13.443Z,101170.13
2022-09-23T09:12:49.060Z,101132.94
2022-09-23T09:15:24.774Z,101161.34
2022-09-23T09:18:02.740Z,101164.00
2022-09-23T09:20:42.257Z,101159.06
2022-09-23T09:23:23.716Z,101156.63
2022-09-23T09:25:55.595Z,101165.28
2022-09-23T09:28:36.455Z,101150.69
2022-09-23T09:31:18.514Z,101150.75
2022-09-23T09:33:58.007Z,101149.09
2022-09-23T09:36:38.737Z,101141.44
2022-09-23T09:39:09.412Z,101143.25
2022-09-23T09:41:40.282Z,101133.78
2022-09-23T09:44:25.414Z,101139.09
2022-09-23T09:47:09.193Z,101136.53
2022-09-23T09:49:45.643Z,101125.38
2022-09-23T09:52:26.024Z,101132.31
2022-09-23T09:55:00.593Z,101138.28
2022-09-23T09:57:36.066Z,101125.44
2022-09-23T10:00:42.307Z,101122.94
2022-09-23T10:03:40.100Z,101108.31
2022-09-23T10:06:19.774Z,101110.09
2022-09-23T10:09:05.034Z,101109.28
2022-09-23T10:11:36.960Z,101090.34
2022-09-23T10:14:09.452Z,101104.09
2022-09-23T10:16:43.945Z,101110.13
2022-09-23T10:19:20.015Z,101114.41
2022-09-23T10:21:54.695Z,101116.22
2022-09-23T10:24:29.227Z,101086.13
2022-09-23T10:27:04.420Z,101068.06
2022-09-23T10:29:39.515Z,101105.91
2022-09-23T10:32:32.772Z,101101.59
2022-09-23T10:35:16.544Z,101102.44
2022-09-23T10:37:49.513Z,101097.28
2022-09-23T10:40:38.801Z,101087.81
2022-09-23T10:43:42.502Z,101073.16
2022-09-23T10:46:48.278Z,101090.34
2022-09-23T10:49:49.951Z,101093.78
2022-09-23T10:52:36.485Z,101094.66
2022-09-23T10:55:16.396Z,101080.00
2022-09-23T10:58:05.817Z,101084.22
2022-09-23T11:00:44.130Z,101089.34
2022-09-23T11:03:32.174Z,101086.69
2022-09-23T11:06:15.300Z,101090.25
2022-09-23T11:09:00.037Z,101079.94
2022-09-23T11:11:40.235Z,101088.50
2022-09-23T11:14:25.712Z,101079.78
2022-09-23T11:17:14.814Z,101066.84
2022-09-23T11:20:11.150Z,101072.94
2022-09-23T11:23:00.530Z,101081.59
2022-09-23T11:25:40.481Z,101059.19
2022-09-23T11:28:40.750Z,101072.00
2022-09-23T11:31:26.495Z,101045.38
2022-09-23T11:34:10.475Z,101069.50
2022-09-23T11:36:45.566Z,101060.88
2022-09-23T11:39:22.472Z,101062.50
2022-09-23T11:41:56.919Z,101044.97
2022-09-23T11:44:32.083Z,101041.56
2022-09-23T11:47:07.902Z,101042.31
2022-09-23T11:49:41.261Z,101048.22
2022-09-23T11:52:19.588Z,101041.31
2022-09-23T11:54:57.117Z,101037.88
2022-09-23T11:57:44.968Z,101033.47
2022-09-23T12:00:21.733Z,101029.03
2022-09-23T12:03:09.381Z,101013.53
2022-09-23T12:05:48.056Z,101011.84
2022-09-23T12:08:25.719Z,101033.28
2022-09-23T12:11:08.679Z,101006.69
2022-09-23T12:13:51.880Z,101022.75
2022-09-23T12:16:39.471Z,101005.53
2022-09-23T12:19:23.193Z,101017.38
2022-09-23T12:22:07.965Z,101012.13
2022-09-23T12:24:50.012Z,101010.41
2022-09-23T12:27:32.264Z,101005.09
2022-09-23T12:30:06.291Z,100998.97
2022-09-23T12:32:36.915Z,100988.03
2022-09-23T12:35:08.716Z,100999.97
2022-09-23T12:37:41.948Z,101001.63
2022-09-23T12:40:21.968Z,101003.19
2022-09-23T12:42:54.748Z,100989.56
2022-09-23T12:45:48.594Z,100957.09
2022-09-23T12:48:47.344Z,100993.91
2022-09-23T12:51:23.991Z,100992.16
2022-09-23T12:54:22.044Z,100985.44
2022-09-23T12:57:08.472Z,100994.88
2022-09-23T13:00:01.030Z,100988.75
2022-09-23T13:02:34.871Z,100986.13
2022-09-23T13:05:36.213Z,100973.16
2022-09-23T13:08:10.214Z,100964.56
2022-09-23T13:10:46.059Z,100972.41
2022-09-23T13:13:24.366Z,100978.53
2022-09-23T13:15:57.798Z,100969.03
2022-09-23T13:18:54.270Z,100974.06
2022-09-23T13:21:53.862Z,100979.91
2022-09-23T13:24:40.590Z,100979.16
2022-09-23T13:27:18.074Z,100981.72
2022-09-23T13:29:53.806Z,100966.25
2022-09-23T13:32:32.221Z,100964.56
2022-09-23T13:35:04.932Z,100973.00
2022-09-23T13:37:45.488Z,100948.94
2022-09-23T13:40:24.394Z,100954.13
2022-09-23T13:42:59.114Z,100958.38
2022-09-23T13:45:31.024Z,100957.38
2022-09-23T13:48:07.875Z,100957.44
2022-09-23T13:50:41.675Z,100964.38
2022-09-23T13:53:14.770Z,100948.91
2022-09-23T13:55:47.905Z,100955.09
2022-09-23T13:58:24.031Z,100950.19
2022-09-23T14:00:54.901Z,100944.13
2022-09-23T14:03:36.170Z,100945.66
2022-09-23T14:06:10.260Z,100937.81
2022-09-23T14:08:43.522Z,100956.09
2022-09-23T14:11:18.223Z,100948.53
2022-09-23T14:13:50.936Z,100946.94
2022-09-23T14:16:21.050Z,100920.34
2022-09-23T14:18:58.355Z,100932.25
2022-09-23T14:21:35.209Z,100941.63
2022-09-23T14:24:16.060Z,100933.78
2022-09-23T14:26:48.157Z,100917.34
2022-09-23T14:29:21.042Z,100916.50
2022-09-23T14:32:00.711Z,100927.69
2022-09-23T14:34:51.757Z,100900.38
2022-09-23T14:37:41.934Z,100932.13
2022-09-23T14:40:16.567Z,100933.00
2022-09-23T14:42:49.307Z,100922.75
2022-09-23T14:45:22.504Z,100920.97
2022-09-23T14:47:54.792Z,100914.84
2022-09-23T14:50:47.534Z,100910.34
2022-09-23T14:53:42.949Z,100908.75
2022-09-23T14:56:20.673Z,100913.09
2022-09-23T14:58:53.631Z,100910.56
2022-09-23T15:01:36.456Z,100913.28
2022-09-23T15:04:15.943Z,100906.41
2022-09-23T15:06:54.763Z,100906.41
2022-09-23T15:09:26.432Z,100905.69
2022-09-23T15:11:59.793Z,100896.38
2022-09-23T15:14:40.839Z,100899.66
2022-09-23T15:17:32.850Z,100894.47
2022-09-23T15:20:05.594Z,100888.41
2022-09-23T15:22:45.518Z,100850.75
2022-09-23T15:25:20.962Z,100901.19
2022-09-23T15:28:03.271Z,100882.22
2022-09-23T15:30:33.636Z,100898.47
2022-09-23T15:33:03.335Z,100892.50
2022-09-23T15:35:33.681Z,100881.22
2022-09-23T15:38:06.045Z,100875.22
2022-09-23T15:40:39.496Z,100874.38
2022-09-23T15:43:21.018Z,100868.34
2022-09-23T15:45:53.823Z,100873.59
2022-09-23T15:48:25.687Z,100888.28
2022-09-23T15:50:56.900Z,100877.16
2022-09-23T15:53:31.202Z,100888.34
2022-09-23T15:56:00.955Z,100892.69
2022-09-23T15:58:30.715Z,100884.06
2022-09-23T16:01:01.239Z,100896.06
2022-09-23T16:03:31.063Z,100848.09
2022-09-23T16:06:03.202Z,100885.78
2022-09-23T16:08:35.636Z,100889.31
2022-09-23T16:11:06.211Z,100854.25
2022-09-23T16:13:35.840Z,100879.94
2022-09-23T16:16:07.963Z,100888.56
2022-09-23T16:18:38.236Z,100867.06
2022-09-23T16:21:09.484Z,100873.97
2022-09-23T16:23:47.440Z,100829.44
2022-09-23T16:26:20.396Z,100878.34
2022-09-23T16:28:51.900Z,100871.47
2022-09-23T16:31:25.523Z,100851.72
2022-09-23T16:33:56.604Z,100874.97
2022-09-23T16:36:28.959Z,100854.41
2022-09-23T16:39:03.027Z,100867.31
2022-09-23T16:41:34.097Z,100869.97
2022-09-23T16:44:10.714Z,100863.94
2022-09-23T16:46:42.892Z,100857.97
2022-09-23T16:49:14.212Z,100848.66
2022-09-23T16:51:43.968Z,100864.97
2022-09-23T16:54:17.453Z,100859.00
2022-09-23T16:56:47.186Z,100841.91
2022-09-23T16:59:18.433Z,100863.38
2022-09-23T17:02:00.745Z,100850.50
2022-09-23T17:04:31.562Z,100865.16
2022-09-23T17:07:01.346Z,100871.25
2022-09-23T17:09:34.940Z,100873.81
2022-09-23T17:12:11.985Z,100864.44
2022-09-23T17:14:41.712Z,100865.34
2022-09-23T17:17:11.409Z,100867.13
2022-09-23T17:19:41.521Z,100856.00
2022-09-23T17:22:11.392Z,100868.06
2022-09-23T17:24:43.664Z,100851.00
2022-09-23T17:27:13.607Z,100858.94
2022-09-23T17:29:44.517Z,100846.44
2022-09-23T17:32:14.173Z,100856.00
2022-09-23T17:34:44.838Z,100859.53
2022-09-23T17:37:14.673Z,100859.63
2022-09-23T17:39:46.943Z,100857.13
2022-09-23T17:42:18.300Z,100860.63
2022-09-23T17:44:48.186Z,100863.19
2022-09-23T17:47:17.989Z,100864.03
2022-09-23T17:49:49.497Z,100862.31
2022-09-23T17:52:19.920Z,100866.69
2022-09-23T17:54:55.283Z,100860.63
2022-09-23T17:57:25.223Z,100862.34
2022-09-23T17:59:56.151Z,100852.94
2022-09-23T18:02:26.595Z,100858.09
2022-09-23T18:04:57.473Z,100860.66
2022-09-23T18:07:28.013Z,100858.13
2022-09-23T18:10:01.109Z,100853.84
2022-09-23T18:12:33.220Z,100865.94
2022-09-23T18:15:04.409Z,100841.97
2022-09-23T18:17:36.185Z,100848.81
2022-09-23T18:20:07.862Z,100835.09
2022-09-23T18:22:37.592Z,100853.13
2022-09-23T18:25:35.133Z,100839.41
2022-09-23T18:28:00.856Z,100837.72
2022-09-23T18:30:33.042Z,100850.59
2022-09-23T18:33:03.442Z,100853.19
2022-09-23T18:35:33.147Z,100844.66
2022-09-23T18:38:02.875Z,100854.06
2022-09-23T18:40:35.571Z,100843.75
2022-09-23T18:43:05.267Z,100856.66
2022-09-23T18:45:35.025Z,100847.22
2022-09-23T18:48:17.541Z,100858.41
2022-09-23T18:50:48.921Z,100861.88
2022-09-23T18:53:18.649Z,100856.72
2022-09-23T18:55:50.936Z,100856.72
2022-09-23T18:58:20.654Z,100844.69
2022-09-23T19:00:51.414Z,100847.28
2022-09-23T19:03:21.178Z,100861.03
2022-09-23T19:05:51.427Z,100864.50
2022-09-23T19:08:21.381Z,100859.38
2022-09-23T19:11:00.269Z,100853.94
2022-09-23T19:13:30.313Z,100857.53
2022-09-23T19:16:04.695Z,100820.66
2022-09-23T19:18:35.016Z,100861.03
2022-09-23T19:21:07.057Z,100853.31
2022-09-23T19:23:37.617Z,100860.19
2022-09-23T19:26:12.326Z,100850.72
2022-09-23T19:28:42.748Z,100841.28
2022-09-23T19:31:13.963Z,100837.00
2022-09-23T19:33:46.271Z,100841.31
2022-09-23T19:36:20.181Z,100841.28
2022-09-23T19:38:50.200Z,100843.00
2022-09-23T19:41:22.502Z,100833.56
2022-09-23T19:43:55.139Z,100831.88
2022-09-23T19:46:25.066Z,100834.44
2022-09-23T19:48:55.953Z,100831.03
2022-09-23T19:51:25.645Z,100827.59
2022-09-23T19:53:55.714Z,100819.03
2022-09-23T19:56:28.014Z,100830.19
2022-09-23T19:58:58.398Z,100802.72
2022-09-23T20:01:29.774Z,100816.31
2022-09-23T20:03:59.756Z,100819.00
2022-09-23T20:06:32.819Z,100817.31
2022-09-23T20:09:02.915Z,100796.72
2022-09-23T20:11:35.531Z,100824.16
2022-09-23T20:14:06.562Z,100818.16
2022-09-23T20:16:38.550Z,100809.59
2022-09-23T20:19:08.896Z,100819.03
2022-09-23T20:21:38.625Z,100820.75
2022-09-23T20:24:09.756Z,100818.16
2022-09-23T20:26:54.646Z,100811.28
2022-09-23T20:29:24.411Z,100804.44
2022-09-23T20:31:54.246Z,100812.16
2022-09-23T20:34:23.936Z,100801.88
2022-09-23T20:36:53.671Z,100807.88
2022-09-23T20:39:23.377Z,100795.84
2022-09-23T20:41:55.688Z,100807.88
2022-09-23T20:44:25.785Z,100808.72
2022-09-23T20:46:55.523Z,100794.16
2022-09-23T20:49:25.298Z,100811.28
2022-09-23T20:51:55.030Z,100801.00
2022-09-23T20:54:24.904Z,100794.16
2022-09-23T20:56:57.177Z,100800.16
2022-09-23T20:59:27.320Z,100780.41
2022-09-23T21:01:58.248Z,100805.28
2022-09-23T21:04:28.326Z,100801.03
2022-09-23T21:06:58.662Z,100811.31
2022-09-23T21:09:30.958Z,100800.16
2022-09-23T21:12:03.633Z,100803.59
2022-09-23T21:14:33.375Z,100805.31
2022-09-23T21:17:03.169Z,100807.03
2022-09-23T21:19:35.244Z,100776.16
2022-09-23T21:22:04.961Z,100800.16
2022-09-23T21:25:12.179Z,100786.44
2022-09-23T21:27:27.178Z,100788.97
2022-09-23T21:29:56.896Z,100803.53
2022-09-23T21:32:26.725Z,100805.25
2022-09-23T21:34:57.457Z,100773.53
2022-09-23T21:37:27.199Z,100790.69
2022-09-23T21:40:09.239Z,100790.69
2022-09-23T21:42:42.126Z,100803.56
2022-09-23T21:45:13.059Z,100806.97
2022-09-23T21:47:42.850Z,100800.97
2022-09-23T21:50:12.820Z,100801.81
2022-09-23T21:52:42.593Z,100793.09
2022-09-23T21:55:12.520Z,100793.28
2022-09-23T21:57:46.143Z,100796.75
2022-09-23T22:00:17.369Z,100805.25
2022-09-23T22:02:47.130Z,100800.03
2022-09-23T22:05:16.890Z,100799.19
2022-09-23T22:07:46.538Z,100800.91
2022-09-23T22:10:16.260Z,100800.88
2022-09-23T22:12:50.586Z,100806.91
2022-09-23T22:15:20.435Z,100804.31
2022-09-23T22:17:50.621Z,100800.91
2022-09-23T22:20:20.268Z,100800.91
2022-09-23T22:22:51.336Z,100797.47
2022-09-23T22:25:21.184Z,100804.34
2022-09-23T22:28:17.748Z,100786.34
2022-09-23T22:30:59.978Z,100801.78
2022-09-23T22:33:29.716Z,100785.47
2022-09-23T22:36:04.157Z,100801.78
2022-09-23T22:38:34.078Z,100807.78
2022-09-23T22:41:03.860Z,100801.78
2022-09-23T22:43:37.600Z,100794.06
2022-09-23T22:46:07.369Z,100790.63
2022-09-23T22:48:37.088Z,100799.22
2022-09-23T22:51:07.252Z,100789.78
2022-09-23T22:53:36.925Z,100797.50
2022-09-23T22:56:06.666Z,100795.81
2022-09-23T22:58:39.001Z,100788.94
2022-09-23T23:01:11.302Z,100784.63
2022-09-23T23:03:42.043Z,100796.63
2022-09-23T23:06:12.660Z,100793.19
2022-09-23T23:08:42.382Z,100782.88
2022-09-23T23:11:12.671Z,100794.88
2022-09-23T23:13:45.424Z,100799.16
2022-09-23T23:16:15.566Z,100789.69
2022-09-23T23:18:47.674Z,100793.13
2022-09-23T23:21:19.574Z,100794.81
2022-09-23T23:23:52.538Z,100799.94
2022-09-23T23:26:24.204Z,100782.81
2022-09-23T23:28:57.392Z,100781.09
2022-09-23T23:31:29.276Z,100782.78
2022-09-23T23:33:59.504Z,100779.41
2022-09-23T23:36:30.811Z,100791.41
2022-09-23T23:39:00.488Z,100786.28
2022-09-23T23:41:30.185Z,100765.66
2022-09-23T23:44:03.382Z,100769.16
2022-09-23T23:46:34.693Z,100776.00
2022-09-23T23:49:04.436Z,100776.88
2022-09-23T23:51:34.068Z,100778.56
2022-09-23T23:54:03.975Z,100775.16
2022-09-23T23:56:33.778Z,100778.56
2022-09-23T23:59:06.811Z,100776.00
